createdAt,value
2018-07-25T00:00:14.950Z,0.00
2018-07-25T00:01:14.870Z,0.00
2018-07-25T00:02:14.811Z,0.00
2018-07-25T00:03:14.731Z,0.00
2018-07-25T00:04:14.662Z,0.00
2018-07-25T00:05:14.582Z,0.00
2018-07-25T00:06:14.525Z,0.00
2018-07-25T00:07:14.439Z,0.00
2018-07-25T00:08:14.374Z,0.00
2018-07-25T00:09:14.293Z,0.00
2018-07-25T00:10:14.237Z,0.00
2018-07-25T00:11:14.149Z,0.00
2018-07-25T00:12:14.085Z,0.00
2018-07-25T00:13:14.010Z,0.00
2018-07-25T00:14:13.943Z,0.00
2018-07-25T00:15:13.868Z,0.00
2018-07-25T00:16:13.793Z,0.00
2018-07-25T00:17:13.717Z,0.00
2018-07-25T00:18:13.657Z,0.00
2018-07-25T00:19:13.570Z,0.00
2018-07-25T00:20:13.505Z,0.00
2018-07-25T00:21:13.428Z,0.00
2018-07-25T00:22:13.362Z,0.00
2018-07-25T00:23:13.291Z,0.00
2018-07-25T00:24:13.217Z,0.00
2018-07-25T00:25:13.137Z,0.00
2018-07-25T00:26:13.074Z,0.00
2018-07-25T00:27:12.987Z,0.00
2018-07-25T00:28:12.930Z,0.00
2018-07-25T00:29:12.853Z,0.00
2018-07-25T00:30:12.785Z,0.00
2018-07-25T00:31:12.704Z,0.00
2018-07-25T00:32:12.644Z,0.00
2018-07-25T00:33:12.560Z,0.00
2018-07-25T00:34:12.500Z,0.00
2018-07-25T00:35:12.417Z,0.00
2018-07-25T00:36:12.389Z,0.00
2018-07-25T00:37:12.272Z,0.00
2018-07-25T00:38:12.206Z,0.00
2018-07-25T00:39:12.123Z,0.00
2018-07-25T00:40:12.059Z,0.00
2018-07-25T00:41:11.979Z,0.00
2018-07-25T00:42:11.911Z,0.00
2018-07-25T00:43:11.835Z,0.00
2018-07-25T00:44:11.771Z,0.00
2018-07-25T00:45:11.689Z,0.00
2018-07-25T00:46:11.625Z,0.00
2018-07-25T00:47:11.541Z,0.00
2018-07-25T00:48:11.487Z,0.00
2018-07-25T00:49:11.397Z,0.00
2018-07-25T00:50:11.335Z,0.00
2018-07-25T00:51:11.252Z,0.00
2018-07-25T00:52:11.189Z,0.00
2018-07-25T00:53:11.109Z,0.00
2018-07-25T00:54:11.051Z,0.00
2018-07-25T00:55:10.969Z,0.00
2018-07-25T00:56:10.900Z,0.00
2018-07-25T00:57:10.819Z,0.00
2018-07-25T00:58:10.753Z,0.00
2018-07-25T00:59:10.675Z,0.00
2018-07-25T01:00:10.608Z,0.00
2018-07-25T01:01:10.527Z,0.00
2018-07-25T01:02:10.459Z,0.00
2018-07-25T01:03:10.381Z,0.00
2018-07-25T01:04:10.317Z,0.00
2018-07-25T01:05:10.249Z,0.00
2018-07-25T01:06:10.168Z,0.00
2018-07-25T01:07:10.090Z,0.00
2018-07-25T01:08:10.028Z,0.00
2018-07-25T01:09:09.942Z,0.00
2018-07-25T01:10:09.881Z,0.00
2018-07-25T01:11:09.799Z,0.00
2018-07-25T01:12:09.736Z,0.00
2018-07-25T01:13:09.653Z,0.00
2018-07-25T01:14:09.588Z,0.00
2018-07-25T01:15:09.510Z,0.00
2018-07-25T01:16:09.439Z,0.00
2018-07-25T01:17:09.364Z,0.00
2018-07-25T01:18:09.297Z,0.00
2018-07-25T01:19:09.217Z,0.00
2018-07-25T01:20:09.156Z,0.00
2018-07-25T01:21:09.069Z,0.00
2018-07-25T01:22:09.006Z,0.00
2018-07-25T01:23:08.927Z,0.00
2018-07-25T01:24:08.861Z,0.00
2018-07-25T01:25:08.779Z,0.00
2018-07-25T01:26:08.721Z,0.00
2018-07-25T01:27:08.633Z,0.00
2018-07-25T01:28:08.566Z,0.00
2018-07-25T01:29:08.484Z,0.00
2018-07-25T01:30:08.425Z,0.00
2018-07-25T01:31:08.337Z,0.00
2018-07-25T01:32:08.274Z,0.00
2018-07-25T01:33:08.194Z,0.00
2018-07-25T01:34:08.133Z,0.00
2018-07-25T01:35:08.049Z,0.00
2018-07-25T01:36:08.980Z,0.00
2018-07-25T01:37:07.897Z,0.00
2018-07-25T01:38:07.837Z,0.00
2018-07-25T01:39:07.765Z,0.00
2018-07-25T01:40:07.695Z,0.00
2018-07-25T01:41:07.610Z,0.00
2018-07-25T01:42:07.543Z,0.00
2018-07-25T01:43:07.463Z,0.00
2018-07-25T01:44:07.402Z,0.00
2018-07-25T01:45:07.317Z,0.00
2018-07-25T01:46:07.249Z,0.00
2018-07-25T01:47:07.170Z,0.00
2018-07-25T01:48:07.106Z,0.00
2018-07-25T01:49:07.023Z,0.00
2018-07-25T01:50:06.962Z,0.00
2018-07-25T01:51:06.879Z,0.00
2018-07-25T01:52:06.827Z,0.00
2018-07-25T01:53:06.728Z,0.00
2018-07-25T01:54:06.665Z,0.00
2018-07-25T01:55:06.583Z,0.00
2018-07-25T01:56:06.521Z,0.00
2018-07-25T01:57:06.445Z,0.00
2018-07-25T01:58:06.370Z,0.00
2018-07-25T01:59:06.290Z,0.00
2018-07-25T02:00:06.227Z,0.00
2018-07-25T02:01:06.146Z,0.00
2018-07-25T02:02:06.077Z,0.00
2018-07-25T02:03:05.998Z,0.00
2018-07-25T02:04:06.820Z,0.00
2018-07-25T02:05:05.850Z,0.00
2018-07-25T02:06:05.787Z,0.00
2018-07-25T02:07:05.707Z,0.00
2018-07-25T02:08:05.652Z,0.00
2018-07-25T02:09:05.563Z,0.00
2018-07-25T02:10:05.496Z,0.00
2018-07-25T02:11:05.419Z,0.00
2018-07-25T02:12:05.351Z,0.00
2018-07-25T02:13:05.271Z,0.00
2018-07-25T02:14:05.199Z,0.00
2018-07-25T02:15:05.117Z,0.00
2018-07-25T02:16:05.052Z,0.00
2018-07-25T02:17:04.973Z,0.00
2018-07-25T02:18:04.906Z,0.00
2018-07-25T02:19:04.824Z,0.00
2018-07-25T02:20:04.824Z,0.00
2018-07-25T02:21:04.679Z,0.00
2018-07-25T02:22:04.617Z,0.00
2018-07-25T02:23:04.528Z,0.00
2018-07-25T02:24:04.468Z,0.00
2018-07-25T02:25:04.389Z,0.00
2018-07-25T02:26:05.318Z,0.00
2018-07-25T02:27:04.242Z,0.00
2018-07-25T02:28:04.177Z,0.00
2018-07-25T02:29:04.090Z,0.00
2018-07-25T02:30:04.020Z,0.00
2018-07-25T02:31:03.955Z,0.00
2018-07-25T02:32:03.873Z,0.00
2018-07-25T02:33:03.805Z,0.00
2018-07-25T02:34:03.724Z,0.00
2018-07-25T02:35:03.652Z,0.00
2018-07-25T02:36:03.576Z,0.00
2018-07-25T02:37:03.510Z,0.00
2018-07-25T02:38:03.436Z,0.00
2018-07-25T02:39:03.363Z,0.00
2018-07-25T02:40:03.285Z,0.00
2018-07-25T02:41:03.220Z,0.00
2018-07-25T02:42:03.143Z,0.00
2018-07-25T02:43:03.073Z,0.00
2018-07-25T02:44:02.988Z,0.00
2018-07-25T02:45:02.922Z,0.00
2018-07-25T02:46:02.852Z,0.00
2018-07-25T02:47:02.777Z,0.00
2018-07-25T02:48:02.694Z,0.00
2018-07-25T02:49:02.631Z,0.00
2018-07-25T02:50:02.549Z,0.00
2018-07-25T02:51:02.480Z,0.00
2018-07-25T02:52:02.400Z,0.00
2018-07-25T02:53:03.331Z,0.00
2018-07-25T02:54:02.247Z,0.00
2018-07-25T02:55:02.183Z,0.00
2018-07-25T02:56:02.102Z,0.00
2018-07-25T02:57:02.068Z,0.00
2018-07-25T02:58:01.960Z,0.00
2018-07-25T02:59:01.890Z,0.00
2018-07-25T03:00:01.815Z,0.00
2018-07-25T03:01:01.741Z,0.00
2018-07-25T03:02:01.660Z,0.00
2018-07-25T03:03:01.595Z,0.00
2018-07-25T03:04:01.519Z,0.00
2018-07-25T03:05:01.450Z,0.00
2018-07-25T03:06:01.374Z,0.00
2018-07-25T03:07:01.301Z,0.00
2018-07-25T03:08:01.221Z,0.00
2018-07-25T03:09:01.223Z,0.00
2018-07-25T03:10:01.069Z,0.00
2018-07-25T03:11:01.010Z,0.00
2018-07-25T03:12:00.926Z,0.00
2018-07-25T03:13:00.869Z,0.00
2018-07-25T03:14:00.776Z,0.00
2018-07-25T03:15:00.709Z,0.00
2018-07-25T03:16:00.633Z,0.00
2018-07-25T03:17:00.564Z,0.00
2018-07-25T03:18:00.484Z,0.00
2018-07-25T03:19:00.416Z,0.00
2018-07-25T03:20:00.342Z,0.00
2018-07-25T03:21:00.271Z,0.00
2018-07-25T03:22:00.191Z,0.00
2018-07-25T03:23:00.116Z,0.00
2018-07-25T03:24:00.038Z,0.00
2018-07-25T03:24:59.976Z,0.00
2018-07-25T03:25:59.901Z,0.00
2018-07-25T03:26:59.821Z,0.00
2018-07-25T03:27:59.792Z,0.00
2018-07-25T03:28:59.674Z,0.00
2018-07-25T03:29:59.593Z,0.00
2018-07-25T03:30:59.527Z,0.00
2018-07-25T03:31:59.448Z,0.00
2018-07-25T03:32:59.381Z,0.00
2018-07-25T03:33:59.294Z,0.00
2018-07-25T03:34:59.234Z,0.00
2018-07-25T03:35:59.147Z,0.00
2018-07-25T03:36:59.087Z,0.00
2018-07-25T03:37:59.002Z,0.00
2018-07-25T03:38:58.936Z,0.00
2018-07-25T03:39:58.854Z,0.00
2018-07-25T03:40:58.789Z,0.00
2018-07-25T03:41:58.711Z,0.00
2018-07-25T03:42:58.638Z,0.00
2018-07-25T03:43:58.557Z,0.00
2018-07-25T03:44:58.504Z,0.00
2018-07-25T03:45:58.414Z,0.00
2018-07-25T03:46:58.341Z,0.00
2018-07-25T03:47:58.263Z,0.00
2018-07-25T03:48:58.220Z,0.00
2018-07-25T03:49:58.111Z,0.00
2018-07-25T03:50:58.052Z,0.00
2018-07-25T03:51:57.960Z,0.00
2018-07-25T03:52:57.940Z,0.00
2018-07-25T03:53:57.815Z,0.00
2018-07-25T03:54:57.752Z,0.00
2018-07-25T03:55:57.673Z,0.00
2018-07-25T03:56:57.602Z,0.00
2018-07-25T03:57:57.521Z,0.00
2018-07-25T03:58:57.448Z,0.00
2018-07-25T03:59:57.371Z,0.00
2018-07-25T04:00:57.379Z,0.00
2018-07-25T04:01:57.287Z,0.00
2018-07-25T04:02:57.186Z,0.00
2018-07-25T04:03:57.073Z,0.00
2018-07-25T04:04:57.100Z,0.00
2018-07-25T04:05:56.926Z,0.00
2018-07-25T04:06:56.907Z,0.00
2018-07-25T04:07:56.779Z,0.00
2018-07-25T04:08:56.817Z,0.00
2018-07-25T04:09:56.628Z,0.00
2018-07-25T04:10:56.624Z,0.00
2018-07-25T04:11:56.488Z,0.00
2018-07-25T04:12:56.433Z,0.00
2018-07-25T04:13:56.331Z,0.00
2018-07-25T04:14:56.345Z,0.00
2018-07-25T04:15:56.180Z,0.00
2018-07-25T04:16:56.114Z,0.00
2018-07-25T04:17:56.033Z,0.00
2018-07-25T04:18:55.968Z,0.00
2018-07-25T04:19:55.886Z,0.00
2018-07-25T04:20:55.873Z,5.63
2018-07-25T04:21:55.738Z,5.63
2018-07-25T04:22:55.687Z,5.63
2018-07-25T04:23:55.590Z,5.63
2018-07-25T04:24:55.526Z,5.63
2018-07-25T04:25:55.439Z,5.63
2018-07-25T04:26:55.378Z,5.63
2018-07-25T04:27:55.292Z,5.63
2018-07-25T04:28:55.229Z,5.63
2018-07-25T04:29:55.148Z,5.63
2018-07-25T04:30:55.122Z,5.63
2018-07-25T04:31:54.995Z,5.63
2018-07-25T04:32:55.034Z,5.63
2018-07-25T04:33:54.847Z,5.63
2018-07-25T04:34:55.781Z,5.63
2018-07-25T04:35:54.702Z,5.63
2018-07-25T04:36:54.630Z,5.63
2018-07-25T04:37:54.550Z,5.63
2018-07-25T04:38:54.557Z,5.63
2018-07-25T04:39:54.406Z,5.63
2018-07-25T04:40:54.337Z,5.63
2018-07-25T04:41:54.251Z,5.63
2018-07-25T04:42:54.192Z,5.63
2018-07-25T04:43:54.103Z,5.63
2018-07-25T04:44:55.037Z,5.63
2018-07-25T04:45:53.958Z,5.63
2018-07-25T04:46:53.894Z,5.63
2018-07-25T04:47:53.836Z,5.63
2018-07-25T04:48:53.742Z,5.63
2018-07-25T04:49:53.660Z,5.63
2018-07-25T04:50:53.616Z,5.63
2018-07-25T04:51:53.513Z,5.63
2018-07-25T04:52:53.525Z,5.63
2018-07-25T04:53:53.358Z,5.63
2018-07-25T04:54:54.296Z,5.63
2018-07-25T04:55:53.215Z,5.63
2018-07-25T04:56:53.150Z,5.63
2018-07-25T04:57:53.098Z,5.63
2018-07-25T04:58:57.991Z,5.63
2018-07-25T04:59:52.923Z,5.63
2018-07-25T05:00:52.855Z,5.63
2018-07-25T05:01:52.774Z,5.63
2018-07-25T05:02:52.773Z,5.63
2018-07-25T05:03:52.621Z,5.63
2018-07-25T05:04:52.554Z,5.63
2018-07-25T05:05:52.474Z,5.63
2018-07-25T05:06:52.491Z,5.63
2018-07-25T05:07:52.322Z,5.63
2018-07-25T05:08:52.303Z,5.63
2018-07-25T05:09:52.176Z,5.63
2018-07-25T05:10:52.113Z,5.63
2018-07-25T05:11:52.026Z,11.25
2018-07-25T05:12:51.960Z,11.25
2018-07-25T05:13:51.881Z,11.25
2018-07-25T05:14:51.832Z,11.25
2018-07-25T05:15:51.732Z,11.25
2018-07-25T05:16:51.675Z,11.25
2018-07-25T05:17:51.643Z,11.25
2018-07-25T05:18:51.522Z,11.25
2018-07-25T05:19:51.434Z,11.25
2018-07-25T05:20:51.377Z,11.25
2018-07-25T05:21:51.291Z,11.25
2018-07-25T05:22:51.225Z,11.25
2018-07-25T05:23:51.143Z,11.25
2018-07-25T05:24:51.079Z,11.25
2018-07-25T05:25:50.994Z,11.25
2018-07-25T05:26:51.929Z,11.25
2018-07-25T05:27:50.846Z,11.25
2018-07-25T05:28:50.780Z,11.25
2018-07-25T05:29:50.701Z,11.25
2018-07-25T05:30:50.635Z,11.25
2018-07-25T05:31:50.554Z,11.25
2018-07-25T05:32:50.492Z,11.25
2018-07-25T05:33:50.405Z,11.25
2018-07-25T05:34:50.341Z,11.25
2018-07-25T05:35:50.256Z,11.25
2018-07-25T05:36:50.194Z,11.25
2018-07-25T05:37:50.106Z,11.25
2018-07-25T05:38:50.051Z,11.25
2018-07-25T05:39:49.966Z,16.88
2018-07-25T05:40:49.899Z,16.88
2018-07-25T05:41:49.817Z,16.88
2018-07-25T05:42:49.750Z,16.88
2018-07-25T05:43:49.714Z,16.88
2018-07-25T05:44:49.605Z,16.88
2018-07-25T05:45:49.523Z,16.88
2018-07-25T05:46:49.452Z,16.88
2018-07-25T05:47:49.378Z,16.88
2018-07-25T05:48:49.388Z,16.88
2018-07-25T05:49:49.228Z,16.88
2018-07-25T05:50:49.201Z,16.88
2018-07-25T05:51:49.081Z,16.88
2018-07-25T05:52:49.016Z,22.50
2018-07-25T05:53:48.936Z,22.50
2018-07-25T05:54:57.862Z,22.50
2018-07-25T05:55:49.420Z,22.50
2018-07-25T05:56:48.750Z,22.50
2018-07-25T05:57:48.642Z,22.50
2018-07-25T05:58:48.699Z,22.50
2018-07-25T05:59:48.501Z,22.50
2018-07-25T06:00:48.444Z,22.50
2018-07-25T06:01:48.348Z,22.50
2018-07-25T06:02:48.400Z,22.50
2018-07-25T06:03:48.204Z,22.50
2018-07-25T06:04:48.137Z,22.50
2018-07-25T06:05:48.946Z,22.50
2018-07-25T06:06:47.990Z,22.50
2018-07-25T06:07:47.950Z,22.50
2018-07-25T06:08:47.918Z,22.50
2018-07-25T06:09:47.763Z,22.50
2018-07-25T06:10:47.798Z,22.50
2018-07-25T06:11:47.619Z,22.50
2018-07-25T06:12:47.560Z,22.50
2018-07-25T06:13:47.473Z,22.50
2018-07-25T06:14:47.405Z,22.50
2018-07-25T06:15:47.329Z,22.50
2018-07-25T06:16:47.269Z,22.50
2018-07-25T06:17:47.177Z,22.50
2018-07-25T06:18:47.112Z,22.50
2018-07-25T06:19:47.036Z,22.50
2018-07-25T06:20:46.971Z,22.50
2018-07-25T06:21:46.894Z,22.50
2018-07-25T06:22:46.822Z,28.13
2018-07-25T06:23:46.750Z,22.50
2018-07-25T06:24:46.688Z,22.50
2018-07-25T06:25:46.639Z,28.13
2018-07-25T06:26:46.534Z,28.13
2018-07-25T06:27:46.455Z,28.13
2018-07-25T06:28:46.386Z,28.13
2018-07-25T06:29:46.311Z,28.13
2018-07-25T06:30:46.245Z,28.13
2018-07-25T06:31:46.162Z,28.13
2018-07-25T06:32:46.100Z,28.13
2018-07-25T06:33:46.023Z,28.13
2018-07-25T06:34:45.980Z,28.13
2018-07-25T06:35:45.875Z,28.13
2018-07-25T06:36:45.809Z,28.13
2018-07-25T06:37:45.727Z,28.13
2018-07-25T06:38:45.665Z,28.13
2018-07-25T06:39:45.589Z,22.50
2018-07-25T06:40:45.527Z,28.13
2018-07-25T06:41:45.440Z,33.75
2018-07-25T06:42:45.379Z,28.13
2018-07-25T06:43:45.364Z,28.13
2018-07-25T06:44:45.237Z,28.13
2018-07-25T06:45:45.152Z,33.75
2018-07-25T06:46:45.091Z,33.75
2018-07-25T06:47:45.011Z,33.75
2018-07-25T06:48:44.952Z,33.75
2018-07-25T06:49:44.866Z,39.38
2018-07-25T06:50:44.825Z,39.38
2018-07-25T06:51:44.720Z,39.38
2018-07-25T06:52:44.654Z,45.00
2018-07-25T06:53:44.578Z,45.00
2018-07-25T06:54:44.509Z,45.00
2018-07-25T06:55:44.430Z,50.63
2018-07-25T06:56:44.374Z,50.63
2018-07-25T06:57:44.290Z,56.25
2018-07-25T06:58:44.226Z,56.25
2018-07-25T06:59:44.144Z,56.25
2018-07-25T07:00:44.099Z,56.25
2018-07-25T07:01:44.001Z,61.88
2018-07-25T07:02:43.941Z,61.88
2018-07-25T07:03:43.862Z,61.88
2018-07-25T07:04:43.795Z,61.88
2018-07-25T07:05:43.722Z,61.88
2018-07-25T07:06:43.760Z,67.50
2018-07-25T07:07:43.572Z,67.50
2018-07-25T07:08:43.519Z,67.50
2018-07-25T07:09:43.436Z,67.50
2018-07-25T07:10:43.364Z,67.50
2018-07-25T07:11:43.295Z,67.50
2018-07-25T07:12:43.226Z,67.50
2018-07-25T07:13:43.151Z,73.13
2018-07-25T07:14:43.082Z,73.13
2018-07-25T07:15:43.004Z,73.13
2018-07-25T07:16:42.942Z,78.75
2018-07-25T07:17:42.867Z,78.75
2018-07-25T07:18:42.801Z,78.75
2018-07-25T07:19:42.724Z,84.38
2018-07-25T07:20:42.659Z,84.38
2018-07-25T07:21:42.581Z,90.00
2018-07-25T07:22:42.523Z,90.00
2018-07-25T07:23:42.436Z,95.63
2018-07-25T07:24:42.375Z,101.25
2018-07-25T07:25:42.346Z,101.25
2018-07-25T07:26:42.237Z,106.88
2018-07-25T07:27:42.153Z,112.50
2018-07-25T07:28:42.093Z,112.50
2018-07-25T07:29:42.017Z,118.13
2018-07-25T07:30:41.955Z,123.75
2018-07-25T07:31:41.878Z,123.75
2018-07-25T07:32:41.812Z,129.38
2018-07-25T07:33:41.736Z,135.00
2018-07-25T07:34:41.669Z,135.00
2018-07-25T07:35:41.596Z,140.63
2018-07-25T07:36:41.533Z,146.25
2018-07-25T07:37:41.461Z,151.88
2018-07-25T07:38:41.392Z,151.88
2018-07-25T07:39:41.318Z,157.50
2018-07-25T07:40:41.254Z,163.13
2018-07-25T07:41:41.179Z,168.75
2018-07-25T07:42:41.132Z,168.75
2018-07-25T07:43:41.033Z,174.38
2018-07-25T07:44:41.044Z,180.00
2018-07-25T07:45:40.900Z,180.00
2018-07-25T07:46:40.852Z,185.63
2018-07-25T07:47:40.813Z,185.63
2018-07-25T07:48:40.765Z,191.25
2018-07-25T07:49:40.625Z,196.88
2018-07-25T07:50:40.576Z,196.88
2018-07-25T07:51:40.484Z,202.50
2018-07-25T07:52:40.489Z,202.50
2018-07-25T07:53:40.346Z,202.50
2018-07-25T07:54:40.401Z,208.13
2018-07-25T07:55:40.211Z,208.13
2018-07-25T07:56:40.210Z,213.75
2018-07-25T07:57:40.075Z,219.38
2018-07-25T07:58:40.120Z,219.38
2018-07-25T07:59:39.939Z,219.38
2018-07-25T08:00:39.926Z,219.38
2018-07-25T08:01:39.812Z,225.00
2018-07-25T08:02:39.841Z,225.00
2018-07-25T08:03:39.666Z,225.00
2018-07-25T08:04:39.652Z,230.63
2018-07-25T08:05:39.525Z,230.63
2018-07-25T08:06:39.567Z,230.63
2018-07-25T08:07:39.390Z,230.63
2018-07-25T08:08:39.330Z,230.63
2018-07-25T08:09:39.252Z,258.75
2018-07-25T08:10:39.327Z,253.13
2018-07-25T08:11:39.119Z,253.13
2018-07-25T08:12:39.087Z,247.50
2018-07-25T08:13:38.980Z,241.88
2018-07-25T08:14:39.003Z,241.88
2018-07-25T08:15:38.851Z,241.88
2018-07-25T08:16:38.812Z,236.25
2018-07-25T08:17:38.801Z,236.25
2018-07-25T08:18:38.725Z,236.25
2018-07-25T08:19:38.591Z,236.25
2018-07-25T08:20:38.641Z,236.25
2018-07-25T08:21:38.510Z,230.63
2018-07-25T08:22:38.444Z,230.63
2018-07-25T08:23:38.314Z,230.63
2018-07-25T08:24:38.357Z,230.63
2018-07-25T08:25:38.185Z,230.63
2018-07-25T08:26:38.163Z,230.63
2018-07-25T08:27:38.043Z,230.63
2018-07-25T08:28:38.074Z,230.63
2018-07-25T08:29:37.914Z,230.63
2018-07-25T08:30:37.883Z,230.63
2018-07-25T08:31:37.782Z,230.63
2018-07-25T08:32:37.792Z,236.25
2018-07-25T08:33:37.657Z,236.25
2018-07-25T08:34:37.786Z,236.25
2018-07-25T08:35:37.520Z,236.25
2018-07-25T08:36:37.512Z,236.25
2018-07-25T08:37:37.385Z,236.25
2018-07-25T08:38:37.325Z,236.25
2018-07-25T08:39:37.329Z,241.88
2018-07-25T08:40:37.187Z,241.88
2018-07-25T08:41:38.203Z,241.88
2018-07-25T08:42:37.054Z,241.88
2018-07-25T08:43:42.580Z,241.88
2018-07-25T08:44:36.922Z,241.88
2018-07-25T08:45:36.963Z,241.88
2018-07-25T08:46:36.794Z,241.88
2018-07-25T08:47:36.769Z,241.88
2018-07-25T08:48:36.662Z,241.88
2018-07-25T08:49:36.682Z,241.88
2018-07-25T08:50:36.530Z,241.88
2018-07-25T08:51:36.489Z,247.50
2018-07-25T08:52:36.490Z,247.50
2018-07-25T08:53:36.401Z,225.00
2018-07-25T08:54:36.297Z,241.88
2018-07-25T08:55:36.314Z,241.88
2018-07-25T08:56:36.140Z,241.88
2018-07-25T08:57:36.166Z,241.88
2018-07-25T08:58:36.012Z,241.88
2018-07-25T08:59:36.041Z,241.88
2018-07-25T09:00:35.914Z,241.88
2018-07-25T09:01:35.844Z,241.88
2018-07-25T09:02:35.747Z,241.88
2018-07-25T09:03:35.754Z,241.88
2018-07-25T09:04:35.625Z,241.88
2018-07-25T09:05:35.668Z,241.88
2018-07-25T09:06:35.552Z,241.88
2018-07-25T09:07:35.503Z,247.50
2018-07-25T09:08:35.358Z,247.50
2018-07-25T09:09:35.400Z,247.50
2018-07-25T09:10:35.234Z,247.50
2018-07-25T09:11:35.200Z,241.88
2018-07-25T09:12:35.140Z,241.88
2018-07-25T09:13:35.108Z,241.88
2018-07-25T09:14:34.975Z,241.88
2018-07-25T09:15:35.018Z,241.88
2018-07-25T09:16:34.844Z,241.88
2018-07-25T09:17:34.824Z,241.88
2018-07-25T09:18:34.717Z,241.88
2018-07-25T09:19:34.739Z,241.88
2018-07-25T09:20:34.592Z,241.88
2018-07-25T09:21:34.649Z,241.88
2018-07-25T09:22:34.463Z,241.88
2018-07-25T09:23:34.456Z,241.88
2018-07-25T09:24:34.337Z,241.88
2018-07-25T09:25:34.385Z,241.88
2018-07-25T09:26:34.207Z,241.88
2018-07-25T09:27:34.183Z,241.88
2018-07-25T09:28:34.086Z,241.88
2018-07-25T09:29:34.025Z,241.88
2018-07-25T09:30:33.995Z,236.25
2018-07-25T09:31:33.889Z,236.25
2018-07-25T09:32:33.911Z,236.25
2018-07-25T09:33:33.766Z,236.25
2018-07-25T09:34:33.825Z,236.25
2018-07-25T09:35:33.634Z,236.25
2018-07-25T09:36:33.572Z,236.25
2018-07-25T09:37:33.637Z,236.25
2018-07-25T09:38:33.446Z,236.25
2018-07-25T09:39:33.448Z,236.25
2018-07-25T09:40:33.325Z,236.25
2018-07-25T09:41:33.356Z,236.25
2018-07-25T09:42:33.195Z,230.63
2018-07-25T09:43:33.162Z,230.63
2018-07-25T09:44:33.068Z,236.25
2018-07-25T09:45:33.076Z,230.63
2018-07-25T09:46:32.956Z,230.63
2018-07-25T09:47:32.985Z,230.63
2018-07-25T09:48:32.829Z,230.63
2018-07-25T09:49:32.822Z,230.63
2018-07-25T09:50:32.692Z,230.63
2018-07-25T09:51:32.708Z,230.63
2018-07-25T09:52:32.565Z,230.63
2018-07-25T09:53:32.643Z,230.63
2018-07-25T09:54:32.434Z,230.63
2018-07-25T09:55:32.428Z,230.63
2018-07-25T09:56:32.310Z,225.00
2018-07-25T09:57:32.341Z,230.63
2018-07-25T09:58:32.183Z,225.00
2018-07-25T09:59:32.250Z,225.00
2018-07-25T10:00:32.064Z,225.00
2018-07-25T10:01:32.061Z,225.00
2018-07-25T10:02:31.960Z,225.00
2018-07-25T10:03:31.972Z,225.00
2018-07-25T10:04:31.813Z,225.00
2018-07-25T10:05:31.767Z,219.38
2018-07-25T10:06:31.794Z,219.38
2018-07-25T10:07:31.662Z,225.00
2018-07-25T10:08:31.599Z,225.00
2018-07-25T10:09:31.500Z,225.00
2018-07-25T10:10:31.533Z,225.00
2018-07-25T10:11:31.374Z,219.38
2018-07-25T10:12:31.343Z,219.38
2018-07-25T10:13:31.343Z,202.50
2018-07-25T10:14:31.212Z,219.38
2018-07-25T10:15:31.233Z,219.38
2018-07-25T10:16:31.063Z,219.38
2018-07-25T10:17:31.053Z,219.38
2018-07-25T10:18:30.943Z,213.75
2018-07-25T10:19:30.956Z,213.75
2018-07-25T10:20:30.825Z,219.38
2018-07-25T10:21:30.878Z,219.38
2018-07-25T10:22:30.691Z,219.38
2018-07-25T10:23:30.676Z,219.38
2018-07-25T10:24:30.590Z,213.75
2018-07-25T10:25:30.592Z,219.38
2018-07-25T10:26:30.440Z,219.38
2018-07-25T10:27:30.552Z,213.75
2018-07-25T10:28:30.445Z,213.75
2018-07-25T10:29:30.308Z,213.75
2018-07-25T10:30:30.191Z,208.13
2018-07-25T10:31:30.236Z,101.25
2018-07-25T10:32:30.066Z,174.38
2018-07-25T10:33:30.031Z,135.00
2018-07-25T10:34:29.950Z,146.25
2018-07-25T10:35:29.942Z,56.25
2018-07-25T10:36:29.817Z,28.13
2018-07-25T10:37:29.854Z,33.75
2018-07-25T10:38:29.700Z,135.00
2018-07-25T10:39:29.630Z,208.13
2018-07-25T10:40:29.571Z,196.88
2018-07-25T10:41:29.575Z,202.50
2018-07-25T10:42:29.494Z,213.75
2018-07-25T10:43:29.488Z,191.25
2018-07-25T10:44:29.322Z,208.13
2018-07-25T10:45:29.396Z,208.13
2018-07-25T10:46:29.197Z,213.75
2018-07-25T10:47:29.212Z,208.13
2018-07-25T10:48:29.073Z,208.13
2018-07-25T10:49:29.123Z,208.13
2018-07-25T10:50:28.948Z,202.50
2018-07-25T10:51:28.924Z,202.50
2018-07-25T10:52:28.839Z,202.50
2018-07-25T10:53:28.839Z,202.50
2018-07-25T10:54:28.699Z,202.50
2018-07-25T10:55:28.747Z,202.50
2018-07-25T10:56:28.618Z,202.50
2018-07-25T10:57:28.666Z,202.50
2018-07-25T10:58:28.456Z,196.88
2018-07-25T10:59:28.471Z,202.50
2018-07-25T11:00:28.330Z,196.88
2018-07-25T11:01:28.267Z,174.38
2018-07-25T11:02:28.204Z,174.38
2018-07-25T11:03:28.190Z,196.88
2018-07-25T11:04:28.080Z,202.50
2018-07-25T11:05:28.104Z,202.50
2018-07-25T11:06:27.962Z,202.50
2018-07-25T11:07:28.014Z,196.88
2018-07-25T11:08:27.834Z,196.88
2018-07-25T11:09:27.820Z,196.88
2018-07-25T11:10:27.711Z,196.88
2018-07-25T11:11:27.737Z,196.88
2018-07-25T11:12:27.589Z,196.88
2018-07-25T11:13:27.645Z,202.50
2018-07-25T11:14:27.462Z,202.50
2018-07-25T11:15:27.454Z,196.88
2018-07-25T11:16:27.399Z,196.88
2018-07-25T11:17:27.281Z,196.88
2018-07-25T11:18:27.217Z,196.88
2018-07-25T11:19:27.277Z,196.88
2018-07-25T11:20:27.094Z,196.88
2018-07-25T11:21:27.086Z,151.88
2018-07-25T11:22:26.969Z,90.00
2018-07-25T11:23:26.997Z,185.63
2018-07-25T11:24:26.848Z,191.25
2018-07-25T11:25:26.909Z,185.63
2018-07-25T11:26:26.727Z,191.25
2018-07-25T11:27:26.719Z,191.25
2018-07-25T11:28:26.605Z,191.25
2018-07-25T11:29:26.628Z,191.25
2018-07-25T11:30:26.475Z,196.88
2018-07-25T11:31:26.545Z,196.88
2018-07-25T11:32:26.385Z,196.88
2018-07-25T11:33:26.350Z,196.88
2018-07-25T11:34:26.234Z,191.25
2018-07-25T11:35:26.260Z,191.25
2018-07-25T11:36:26.111Z,196.88
2018-07-25T11:37:26.180Z,196.88
2018-07-25T11:38:25.996Z,196.88
2018-07-25T11:39:25.997Z,39.38
2018-07-25T11:40:25.864Z,39.38
2018-07-25T11:41:25.805Z,84.38
2018-07-25T11:42:25.902Z,196.88
2018-07-25T11:43:25.684Z,191.25
2018-07-25T11:44:25.709Z,196.88
2018-07-25T11:45:25.563Z,196.88
2018-07-25T11:46:25.625Z,196.88
2018-07-25T11:47:25.441Z,196.88
2018-07-25T11:48:25.376Z,196.88
2018-07-25T11:49:25.317Z,196.88
2018-07-25T11:50:25.408Z,196.88
2018-07-25T11:51:25.192Z,196.88
2018-07-25T11:52:25.252Z,196.88
2018-07-25T11:53:25.073Z,191.25
2018-07-25T11:54:25.166Z,191.25
2018-07-25T11:55:25.021Z,185.63
2018-07-25T11:56:24.970Z,196.88
2018-07-25T11:57:24.829Z,168.75
2018-07-25T11:58:24.882Z,50.63
2018-07-25T11:59:24.701Z,45.00
2018-07-25T12:00:24.797Z,45.00
2018-07-25T12:01:24.597Z,45.00
2018-07-25T12:02:24.602Z,163.13
2018-07-25T12:03:24.459Z,196.88
2018-07-25T12:04:24.516Z,202.50
2018-07-25T12:05:24.345Z,202.50
2018-07-25T12:06:24.331Z,202.50
2018-07-25T12:07:24.253Z,196.88
2018-07-25T12:08:24.250Z,202.50
2018-07-25T12:09:24.090Z,208.13
2018-07-25T12:10:24.151Z,208.13
2018-07-25T12:11:23.966Z,208.13
2018-07-25T12:12:24.059Z,202.50
2018-07-25T12:13:23.845Z,50.63
2018-07-25T12:14:23.870Z,50.63
2018-07-25T12:15:23.723Z,50.63
2018-07-25T12:16:23.783Z,191.25
2018-07-25T12:17:23.605Z,202.50
2018-07-25T12:18:23.693Z,196.88
2018-07-25T12:19:23.478Z,196.88
2018-07-25T12:20:23.499Z,191.25
2018-07-25T12:21:23.355Z,191.25
2018-07-25T12:22:23.411Z,191.25
2018-07-25T12:23:23.239Z,191.25
2018-07-25T12:24:23.321Z,191.25
2018-07-25T12:25:23.112Z,191.25
2018-07-25T12:26:23.148Z,191.25
2018-07-25T12:27:22.991Z,191.25
2018-07-25T12:28:22.931Z,191.25
2018-07-25T12:29:22.866Z,196.88
2018-07-25T12:30:22.855Z,196.88
2018-07-25T12:31:22.746Z,196.88
2018-07-25T12:32:22.718Z,196.88
2018-07-25T12:33:22.622Z,196.88
2018-07-25T12:35:22.504Z,196.88
2018-07-25T12:36:22.588Z,196.88
2018-07-25T12:37:22.383Z,196.88
2018-07-25T12:38:22.399Z,196.88
2018-07-25T12:39:22.265Z,196.88
2018-07-25T12:40:22.310Z,191.25
2018-07-25T12:41:22.141Z,191.25
2018-07-25T12:42:22.221Z,185.63
2018-07-25T12:43:22.020Z,191.25
2018-07-25T12:44:22.031Z,185.63
2018-07-25T12:45:21.903Z,185.63
2018-07-25T12:46:21.938Z,185.63
2018-07-25T12:47:21.775Z,185.63
2018-07-25T12:48:21.867Z,185.63
2018-07-25T12:49:21.652Z,185.63
2018-07-25T12:50:21.659Z,191.25
2018-07-25T12:51:21.534Z,191.25
2018-07-25T12:52:21.579Z,191.25